Terminal Aerodrome Forecast
Issued by NWS

Home | Current Version | Previous Version | Text Only | Print | Product List | Glossary On
Versions: 1 2 3 4 5 6 7 8 9 10 11 12 13 14 15 16 17 18 19 20 21 22 23 24 25
000
FTUS41 KCAR 241700 RRA
TAFPQI
TAF
KPQI 241759Z 2418/2518 36012G21KT 6SM -SN SCT008 OVC015
     FM242100 36013G22KT 2SM -SN OVC009
     FM250400 35008KT P6SM OVC009
     FM251300 33006KT P6SM BKN015
     FM251500 33006KT P6SM SCT035
      AMD LTD TO CLD VIS AND WIND=

USA.gov is the U.S. government's official web portal to all federal, state and local government web resources and services.